Arverne, New York
Current Conditions -  °F | °C
As of 1:51 PM on Thursday 18 Dec 2014 (Local Time) from KJFK Reporting Station
Scattered Clouds Scattered Clouds  
Wind Chill: 37°   Ceiling: Unl
Heat Index: 44°   Visibility: 10mi
Dew Point: 23°   Wind: 16mph
Humidity: 43%   Direction: 290°WNW
Pressure: 29.94"   Gusts: 25mph
Location:  40.59°N, 73.8°W
Report Text: KJFK 181851Z 29014G22KT 10SM SCT042 07/M05 A2994 RMK AO2 SLP138 T00671050
Loading
Personal Weather Stations






























Interactive Weather Map New forecast layout! Learn more

10-Day Weather Forecast

Advertisements
Track Severe Weather on mobile